sensor_id;sensor_type;location;lat;lon;timestamp;temperature;humidity
65374;SHT31;52070;53.760;9.678;2023-06-22T00:01:13;16.26;82.32
65374;SHT31;52070;53.760;9.678;2023-06-22T00:03:40;16.26;82.37
65374;SHT31;52070;53.760;9.678;2023-06-22T00:06:07;16.24;82.39
65374;SHT31;52070;53.760;9.678;2023-06-22T00:08:34;16.19;82.69
65374;SHT31;52070;53.760;9.678;2023-06-22T00:11:02;16.16;82.85
65374;SHT31;52070;53.760;9.678;2023-06-22T00:13:29;16.14;83.10
65374;SHT31;52070;53.760;9.678;2023-06-22T00:15:56;16.19;83.11
65374;SHT31;52070;53.760;9.678;2023-06-22T00:18:23;16.05;83.05
65374;SHT31;52070;53.760;9.678;2023-06-22T00:20:54;16.00;82.94
65374;SHT31;52070;53.760;9.678;2023-06-22T00:23:24;15.98;83.27
65374;SHT31;52070;53.760;9.678;2023-06-22T00:25:51;16.04;83.28
65374;SHT31;52070;53.760;9.678;2023-06-22T00:28:19;16.05;83.44
65374;SHT31;52070;53.760;9.678;2023-06-22T00:30:47;16.02;83.20
65374;SHT31;52070;53.760;9.678;2023-06-22T00:33:14;15.97;83.42
65374;SHT31;52070;53.760;9.678;2023-06-22T00:35:41;16.01;83.53
65374;SHT31;52070;53.760;9.678;2023-06-22T00:38:08;15.98;83.40
65374;SHT31;52070;53.760;9.678;2023-06-22T00:40:36;15.85;84.48
65374;SHT31;52070;53.760;9.678;2023-06-22T00:43:04;15.75;85.27
65374;SHT31;52070;53.760;9.678;2023-06-22T00:45:33;15.80;85.29
65374;SHT31;52070;53.760;9.678;2023-06-22T00:48:00;15.91;84.79
65374;SHT31;52070;53.760;9.678;2023-06-22T00:50:30;15.97;84.43
65374;SHT31;52070;53.760;9.678;2023-06-22T00:53:03;15.98;84.15
65374;SHT31;52070;53.760;9.678;2023-06-22T00:55:35;15.98;84.88
65374;SHT31;52070;53.760;9.678;2023-06-22T00:58:04;15.98;84.60
65374;SHT31;52070;53.760;9.678;2023-06-22T01:00:35;15.97;84.46
65374;SHT31;52070;53.760;9.678;2023-06-22T01:03:02;15.94;84.54
65374;SHT31;52070;53.760;9.678;2023-06-22T01:05:31;15.94;84.39
65374;SHT31;52070;53.760;9.678;2023-06-22T01:08:07;15.90;84.38
65374;SHT31;52070;53.760;9.678;2023-06-22T01:10:40;16.00;84.24
65374;SHT31;52070;53.760;9.678;2023-06-22T01:13:15;15.95;84.41
65374;SHT31;52070;53.760;9.678;2023-06-22T01:15:46;15.94;84.54
65374;SHT31;52070;53.760;9.678;2023-06-22T01:18:17;15.97;84.73
65374;SHT31;52070;53.760;9.678;2023-06-22T01:20:44;15.92;85.18
65374;SHT31;52070;53.760;9.678;2023-06-22T01:23:20;15.94;84.94
65374;SHT31;52070;53.760;9.678;2023-06-22T01:25:56;16.02;84.60
65374;SHT31;52070;53.760;9.678;2023-06-22T01:31:19;15.92;84.22
65374;SHT31;52070;53.760;9.678;2023-06-22T01:33:50;15.90;84.31
65374;SHT31;52070;53.760;9.678;2023-06-22T01:36:17;15.95;84.36
65374;SHT31;52070;53.760;9.678;2023-06-22T01:38:45;16.00;84.75
65374;SHT31;52070;53.760;9.678;2023-06-22T01:41:14;16.02;84.96
65374;SHT31;52070;53.760;9.678;2023-06-22T01:43:43;16.00;84.47
65374;SHT31;52070;53.760;9.678;2023-06-22T01:46:11;15.94;84.85
65374;SHT31;52070;53.760;9.678;2023-06-22T01:48:39;15.97;84.84
65374;SHT31;52070;53.760;9.678;2023-06-22T01:51:06;15.88;84.65
65374;SHT31;52070;53.760;9.678;2023-06-22T01:53:33;15.85;84.77
65374;SHT31;52070;53.760;9.678;2023-06-22T01:56:00;15.85;84.94
65374;SHT31;52070;53.760;9.678;2023-06-22T01:58:29;15.85;85.00
65374;SHT31;52070;53.760;9.678;2023-06-22T02:01:00;15.83;84.98
65374;SHT31;52070;53.760;9.678;2023-06-22T02:03:34;15.81;85.09
65374;SHT31;52070;53.760;9.678;2023-06-22T02:06:06;15.80;85.23
65374;SHT31;52070;53.760;9.678;2023-06-22T02:08:41;15.74;85.49
65374;SHT31;52070;53.760;9.678;2023-06-22T02:11:09;15.70;85.36
65374;SHT31;52070;53.760;9.678;2023-06-22T02:13:37;15.77;85.53
65374;SHT31;52070;53.760;9.678;2023-06-22T02:16:10;15.80;85.35
65374;SHT31;52070;53.760;9.678;2023-06-22T02:18:38;15.75;85.39
65374;SHT31;52070;53.760;9.678;2023-06-22T02:21:05;15.70;85.73
65374;SHT31;52070;53.760;9.678;2023-06-22T02:23:33;15.61;85.68
65374;SHT31;52070;53.760;9.678;2023-06-22T02:26:02;15.68;85.74
65374;SHT31;52070;53.760;9.678;2023-06-22T02:28:30;15.64;85.62
65374;SHT31;52070;53.760;9.678;2023-06-22T02:30:57;15.60;85.80
65374;SHT31;52070;53.760;9.678;2023-06-22T02:33:25;15.64;86.10
65374;SHT31;52070;53.760;9.678;2023-06-22T02:35:53;15.65;85.90
65374;SHT31;52070;53.760;9.678;2023-06-22T02:38:20;15.65;85.85
65374;SHT31;52070;53.760;9.678;2023-06-22T02:40:50;15.58;85.74
65374;SHT31;52070;53.760;9.678;2023-06-22T02:43:17;15.57;85.78
65374;SHT31;52070;53.760;9.678;2023-06-22T02:45:44;15.55;85.76
65374;SHT31;52070;53.760;9.678;2023-06-22T02:48:11;15.53;85.99
65374;SHT31;52070;53.760;9.678;2023-06-22T02:50:39;15.55;85.92
65374;SHT31;52070;53.760;9.678;2023-06-22T02:53:06;15.41;86.47
65374;SHT31;52070;53.760;9.678;2023-06-22T02:55:33;15.37;86.24
65374;SHT31;52070;53.760;9.678;2023-06-22T02:58:00;15.36;86.18
65374;SHT31;52070;53.760;9.678;2023-06-22T03:00:30;15.30;86.66
65374;SHT31;52070;53.760;9.678;2023-06-22T03:02:57;15.18;87.46
65374;SHT31;52070;53.760;9.678;2023-06-22T03:05:24;15.10;87.75
65374;SHT31;52070;53.760;9.678;2023-06-22T03:07:53;15.16;87.59
65374;SHT31;52070;53.760;9.678;2023-06-22T03:10:20;15.22;87.40
65374;SHT31;52070;53.760;9.678;2023-06-22T03:12:47;15.27;87.14
65374;SHT31;52070;53.760;9.678;2023-06-22T03:15:14;15.26;87.00
65374;SHT31;52070;53.760;9.678;2023-06-22T03:17:43;15.24;87.01
65374;SHT31;52070;53.760;9.678;2023-06-22T03:20:10;15.24;87.14
65374;SHT31;52070;53.760;9.678;2023-06-22T03:22:38;15.22;87.03
65374;SHT31;52070;53.760;9.678;2023-06-22T03:25:08;15.24;87.09
65374;SHT31;52070;53.760;9.678;2023-06-22T03:27:38;15.29;86.98
65374;SHT31;52070;53.760;9.678;2023-06-22T03:30:07;15.31;86.75
65374;SHT31;52070;53.760;9.678;2023-06-22T03:32:34;15.30;86.77
65374;SHT31;52070;53.760;9.678;2023-06-22T03:35:01;15.24;86.84
65374;SHT31;52070;53.760;9.678;2023-06-22T03:37:29;15.23;86.77
65374;SHT31;52070;53.760;9.678;2023-06-22T03:39:56;15.22;86.97
65374;SHT31;52070;53.760;9.678;2023-06-22T03:42:25;15.24;86.97
65374;SHT31;52070;53.760;9.678;2023-06-22T03:44:52;15.27;86.84
65374;SHT31;52070;53.760;9.678;2023-06-22T03:47:19;15.36;86.87
65374;SHT31;52070;53.760;9.678;2023-06-22T03:49:46;15.37;86.80
65374;SHT31;52070;53.760;9.678;2023-06-22T03:52:13;15.36;86.89
65374;SHT31;52070;53.760;9.678;2023-06-22T03:54:40;15.30;87.12
65374;SHT31;52070;53.760;9.678;2023-06-22T03:57:07;15.24;87.85
65374;SHT31;52070;53.760;9.678;2023-06-22T03:59:35;15.24;87.91
65374;SHT31;52070;53.760;9.678;2023-06-22T04:02:03;15.27;87.77
65374;SHT31;52070;53.760;9.678;2023-06-22T04:04:30;15.26;87.99
65374;SHT31;52070;53.760;9.678;2023-06-22T04:06:57;15.27;88.33
65374;SHT31;52070;53.760;9.678;2023-06-22T04:09:24;15.31;88.23
65374;SHT31;52070;53.760;9.678;2023-06-22T04:11:51;15.37;88.04
65374;SHT31;52070;53.760;9.678;2023-06-22T04:14:18;15.40;87.99
65374;SHT31;52070;53.760;9.678;2023-06-22T04:16:46;15.47;87.87
65374;SHT31;52070;53.760;9.678;2023-06-22T04:19:13;15.57;87.87
65374;SHT31;52070;53.760;9.678;2023-06-22T04:21:42;15.64;87.85
65374;SHT31;52070;53.760;9.678;2023-06-22T04:24:10;15.65;87.86
65374;SHT31;52070;53.760;9.678;2023-06-22T04:26:37;15.74;87.64
65374;SHT31;52070;53.760;9.678;2023-06-22T04:29:07;15.80;87.89
65374;SHT31;52070;53.760;9.678;2023-06-22T04:31:34;15.83;87.51
65374;SHT31;52070;53.760;9.678;2023-06-22T04:34:05;15.88;87.77
65374;SHT31;52070;53.760;9.678;2023-06-22T04:36:34;15.92;87.68
65374;SHT31;52070;53.760;9.678;2023-06-22T04:39:04;16.00;87.79
65374;SHT31;52070;53.760;9.678;2023-06-22T04:41:32;16.04;88.09
65374;SHT31;52070;53.760;9.678;2023-06-22T04:44:08;16.11;87.86
65374;SHT31;52070;53.760;9.678;2023-06-22T04:46:36;16.16;87.44
65374;SHT31;52070;53.760;9.678;2023-06-22T04:49:06;16.21;87.29
65374;SHT31;52070;53.760;9.678;2023-06-22T04:51:39;16.35;87.09
65374;SHT31;52070;53.760;9.678;2023-06-22T04:54:07;16.42;86.87
65374;SHT31;52070;53.760;9.678;2023-06-22T04:56:35;16.52;86.73
65374;SHT31;52070;53.760;9.678;2023-06-22T04:59:03;16.57;86.64
65374;SHT31;52070;53.760;9.678;2023-06-22T05:01:30;16.63;86.65
65374;SHT31;52070;53.760;9.678;2023-06-22T05:03:57;16.67;86.63
65374;SHT31;52070;53.760;9.678;2023-06-22T05:06:28;16.76;86.47
65374;SHT31;52070;53.760;9.678;2023-06-22T05:08:56;16.81;86.22
65374;SHT31;52070;53.760;9.678;2023-06-22T05:11:24;16.84;86.17
65374;SHT31;52070;53.760;9.678;2023-06-22T05:13:52;16.91;86.17
65374;SHT31;52070;53.760;9.678;2023-06-22T05:16:19;16.96;85.84
65374;SHT31;52070;53.760;9.678;2023-06-22T05:18:51;16.97;85.40
65374;SHT31;52070;53.760;9.678;2023-06-22T05:21:21;16.99;85.15
65374;SHT31;52070;53.760;9.678;2023-06-22T05:23:50;17.03;84.98
65374;SHT31;52070;53.760;9.678;2023-06-22T05:26:18;17.04;85.03
65374;SHT31;52070;53.760;9.678;2023-06-22T05:28:45;17.10;84.89
65374;SHT31;52070;53.760;9.678;2023-06-22T05:31:13;17.14;84.74
65374;SHT31;52070;53.760;9.678;2023-06-22T05:33:40;17.20;84.56
65374;SHT31;52070;53.760;9.678;2023-06-22T05:36:07;17.24;84.15
65374;SHT31;52070;53.760;9.678;2023-06-22T05:38:36;17.27;83.87
65374;SHT31;52070;53.760;9.678;2023-06-22T05:41:04;17.30;83.82
65374;SHT31;52070;53.760;9.678;2023-06-22T05:43:31;17.32;83.57
65374;SHT31;52070;53.760;9.678;2023-06-22T05:46:01;17.35;83.55
65374;SHT31;52070;53.760;9.678;2023-06-22T05:48:28;17.40;83.32
65374;SHT31;52070;53.760;9.678;2023-06-22T05:50:55;17.44;83.28
65374;SHT31;52070;53.760;9.678;2023-06-22T05:53:22;17.44;82.86
65374;SHT31;52070;53.760;9.678;2023-06-22T05:55:49;17.48;82.66
65374;SHT31;52070;53.760;9.678;2023-06-22T05:58:17;17.52;82.53
65374;SHT31;52070;53.760;9.678;2023-06-22T06:00:44;17.57;82.28
65374;SHT31;52070;53.760;9.678;2023-06-22T06:03:12;17.61;82.17
65374;SHT31;52070;53.760;9.678;2023-06-22T06:05:42;17.62;81.95
65374;SHT31;52070;53.760;9.678;2023-06-22T06:08:10;17.65;81.52
65374;SHT31;52070;53.760;9.678;2023-06-22T06:10:38;17.67;81.79
65374;SHT31;52070;53.760;9.678;2023-06-22T06:13:05;17.67;81.42
65374;SHT31;52070;53.760;9.678;2023-06-22T06:15:34;17.67;81.61
65374;SHT31;52070;53.760;9.678;2023-06-22T06:18:01;17.70;81.53
65374;SHT31;52070;53.760;9.678;2023-06-22T06:20:31;17.74;81.72
65374;SHT31;52070;53.760;9.678;2023-06-22T06:22:58;17.77;81.73
65374;SHT31;52070;53.760;9.678;2023-06-22T06:25:25;17.85;81.82
65374;SHT31;52070;53.760;9.678;2023-06-22T06:27:52;17.91;81.58
65374;SHT31;52070;53.760;9.678;2023-06-22T06:30:20;17.98;81.29
65374;SHT31;52070;53.760;9.678;2023-06-22T06:32:50;18.03;81.27
65374;SHT31;52070;53.760;9.678;2023-06-22T06:35:17;18.13;81.55
65374;SHT31;52070;53.760;9.678;2023-06-22T06:37:46;18.33;80.78
65374;SHT31;52070;53.760;9.678;2023-06-22T06:40:14;18.50;80.76
65374;SHT31;52070;53.760;9.678;2023-06-22T06:42:42;18.76;78.66
65374;SHT31;52070;53.760;9.678;2023-06-22T06:45:11;18.74;77.72
65374;SHT31;52070;53.760;9.678;2023-06-22T06:47:38;18.87;78.60
65374;SHT31;52070;53.760;9.678;2023-06-22T06:50:08;19.03;76.60
65374;SHT31;52070;53.760;9.678;2023-06-22T06:52:35;19.08;77.10
65374;SHT31;52070;53.760;9.678;2023-06-22T06:55:03;19.22;76.88
65374;SHT31;52070;53.760;9.678;2023-06-22T06:57:34;19.31;77.54
65374;SHT31;52070;53.760;9.678;2023-06-22T07:00:03;19.38;76.99
65374;SHT31;52070;53.760;9.678;2023-06-22T07:02:37;19.50;75.43
65374;SHT31;52070;53.760;9.678;2023-06-22T07:05:04;19.58;74.53
65374;SHT31;52070;53.760;9.678;2023-06-22T07:07:33;19.62;73.45
65374;SHT31;52070;53.760;9.678;2023-06-22T07:10:01;19.78;73.37
65374;SHT31;52070;53.760;9.678;2023-06-22T07:12:28;19.97;74.22
65374;SHT31;52070;53.760;9.678;2023-06-22T07:15:01;20.09;71.99
65374;SHT31;52070;53.760;9.678;2023-06-22T07:17:29;20.14;72.44
65374;SHT31;52070;53.760;9.678;2023-06-22T07:19:56;20.24;71.60
65374;SHT31;52070;53.760;9.678;2023-06-22T07:22:23;20.37;71.29
65374;SHT31;52070;53.760;9.678;2023-06-22T07:24:51;20.58;70.46
65374;SHT31;52070;53.760;9.678;2023-06-22T07:27:18;20.71;69.80
65374;SHT31;52070;53.760;9.678;2023-06-22T07:29:45;20.78;70.08
65374;SHT31;52070;53.760;9.678;2023-06-22T07:32:12;20.88;70.62
65374;SHT31;52070;53.760;9.678;2023-06-22T07:34:39;20.98;68.69
65374;SHT31;52070;53.760;9.678;2023-06-22T07:37:07;20.97;67.30
65374;SHT31;52070;53.760;9.678;2023-06-22T07:39:34;20.98;67.47
65374;SHT31;52070;53.760;9.678;2023-06-22T07:42:02;21.04;68.82
65374;SHT31;52070;53.760;9.678;2023-06-22T07:44:29;21.02;67.71
65374;SHT31;52070;53.760;9.678;2023-06-22T07:46:56;21.14;66.44
65374;SHT31;52070;53.760;9.678;2023-06-22T07:49:23;21.12;66.13
65374;SHT31;52070;53.760;9.678;2023-06-22T07:51:50;21.14;67.09
65374;SHT31;52070;53.760;9.678;2023-06-22T07:54:17;21.22;65.23
65374;SHT31;52070;53.760;9.678;2023-06-22T07:56:46;21.28;64.54
65374;SHT31;52070;53.760;9.678;2023-06-22T07:59:14;21.27;65.01
65374;SHT31;52070;53.760;9.678;2023-06-22T08:01:42;21.35;65.58
65374;SHT31;52070;53.760;9.678;2023-06-22T08:04:09;21.49;65.70
65374;SHT31;52070;53.760;9.678;2023-06-22T08:06:36;21.59;63.93
65374;SHT31;52070;53.760;9.678;2023-06-22T08:09:03;21.73;64.84
65374;SHT31;52070;53.760;9.678;2023-06-22T08:11:30;21.66;63.12
65374;SHT31;52070;53.760;9.678;2023-06-22T08:13:57;21.75;62.60
65374;SHT31;52070;53.760;9.678;2023-06-22T08:16:25;21.76;63.54
65374;SHT31;52070;53.760;9.678;2023-06-22T08:18:52;21.89;62.96
65374;SHT31;52070;53.760;9.678;2023-06-22T08:21:20;21.99;63.79
65374;SHT31;52070;53.760;9.678;2023-06-22T08:23:47;22.04;62.46
65374;SHT31;52070;53.760;9.678;2023-06-22T08:26:15;22.07;62.27
65374;SHT31;52070;53.760;9.678;2023-06-22T08:28:42;22.25;61.43
65374;SHT31;52070;53.760;9.678;2023-06-22T08:31:09;22.39;62.01
65374;SHT31;52070;53.760;9.678;2023-06-22T08:33:39;22.40;61.00
65374;SHT31;52070;53.760;9.678;2023-06-22T08:36:06;22.47;61.59
65374;SHT31;52070;53.760;9.678;2023-06-22T08:38:34;22.51;61.62
65374;SHT31;52070;53.760;9.678;2023-06-22T08:41:01;22.57;61.74
65374;SHT31;52070;53.760;9.678;2023-06-22T08:43:28;22.65;60.00
65374;SHT31;52070;53.760;9.678;2023-06-22T08:45:55;22.77;60.58
65374;SHT31;52070;53.760;9.678;2023-06-22T08:48:22;22.99;61.46
65374;SHT31;52070;53.760;9.678;2023-06-22T08:50:50;23.05;61.12
65374;SHT31;52070;53.760;9.678;2023-06-22T08:53:17;23.14;59.47
65374;SHT31;52070;53.760;9.678;2023-06-22T08:55:44;23.28;58.59
65374;SHT31;52070;53.760;9.678;2023-06-22T08:58:11;23.45;58.08
65374;SHT31;52070;53.760;9.678;2023-06-22T09:00:38;23.42;56.88
65374;SHT31;52070;53.760;9.678;2023-06-22T09:03:05;23.63;58.31
65374;SHT31;52070;53.760;9.678;2023-06-22T09:05:32;23.74;59.62
65374;SHT31;52070;53.760;9.678;2023-06-22T09:08:01;23.82;55.51
65374;SHT31;52070;53.760;9.678;2023-06-22T09:10:28;23.94;56.70
65374;SHT31;52070;53.760;9.678;2023-06-22T09:12:54;24.18;56.60
65374;SHT31;52070;53.760;9.678;2023-06-22T09:15:21;24.38;56.47
65374;SHT31;52070;53.760;9.678;2023-06-22T09:17:48;24.54;54.81
65374;SHT31;52070;53.760;9.678;2023-06-22T09:20:15;24.71;53.39
65374;SHT31;52070;53.760;9.678;2023-06-22T09:22:42;24.78;54.14
65374;SHT31;52070;53.760;9.678;2023-06-22T09:25:11;24.75;52.91
65374;SHT31;52070;53.760;9.678;2023-06-22T09:27:38;24.88;53.22
65374;SHT31;52070;53.760;9.678;2023-06-22T09:30:06;25.02;55.36
65374;SHT31;52070;53.760;9.678;2023-06-22T09:32:33;25.23;54.44
65374;SHT31;52070;53.760;9.678;2023-06-22T09:35:04;25.45;53.01
65374;SHT31;52070;53.760;9.678;2023-06-22T09:37:32;25.63;53.91
65374;SHT31;52070;53.760;9.678;2023-06-22T09:39:59;25.87;52.04
65374;SHT31;52070;53.760;9.678;2023-06-22T09:42:27;25.91;51.85
65374;SHT31;52070;53.760;9.678;2023-06-22T09:44:54;25.96;52.36
65374;SHT31;52070;53.760;9.678;2023-06-22T09:47:21;26.18;52.76
65374;SHT31;52070;53.760;9.678;2023-06-22T09:49:48;26.40;53.34
65374;SHT31;52070;53.760;9.678;2023-06-22T09:52:15;26.32;50.89
65374;SHT31;52070;53.760;9.678;2023-06-22T09:54:42;26.68;53.10
65374;SHT31;52070;53.760;9.678;2023-06-22T09:57:09;26.79;48.43
65374;SHT31;52070;53.760;9.678;2023-06-22T09:59:38;26.81;48.78
65374;SHT31;52070;53.760;9.678;2023-06-22T10:02:06;26.96;49.45
65374;SHT31;52070;53.760;9.678;2023-06-22T10:04:33;27.05;51.86
65374;SHT31;52070;53.760;9.678;2023-06-22T10:07:00;27.27;47.64
65374;SHT31;52070;53.760;9.678;2023-06-22T10:09:27;27.06;46.69
65374;SHT31;52070;53.760;9.678;2023-06-22T10:11:54;27.37;47.64
65374;SHT31;52070;53.760;9.678;2023-06-22T10:14:21;27.56;48.15
65374;SHT31;52070;53.760;9.678;2023-06-22T10:16:52;27.76;50.09
65374;SHT31;52070;53.760;9.678;2023-06-22T10:19:19;27.88;48.05
65374;SHT31;52070;53.760;9.678;2023-06-22T10:21:46;27.80;46.81
65374;SHT31;52070;53.760;9.678;2023-06-22T10:24:13;28.12;47.93
65374;SHT31;52070;53.760;9.678;2023-06-22T10:26:40;28.08;49.11
65374;SHT31;52070;53.760;9.678;2023-06-22T10:29:07;28.49;48.58
65374;SHT31;52070;53.760;9.678;2023-06-22T10:31:34;28.37;44.93
65374;SHT31;52070;53.760;9.678;2023-06-22T10:34:02;27.71;47.51
65374;SHT31;52070;53.760;9.678;2023-06-22T10:36:29;27.42;48.02
65374;SHT31;52070;53.760;9.678;2023-06-22T10:38:56;27.56;47.59
65374;SHT31;52070;53.760;9.678;2023-06-22T10:41:25;27.84;46.81
65374;SHT31;52070;53.760;9.678;2023-06-22T10:43:54;27.54;46.24
65374;SHT31;52070;53.760;9.678;2023-06-22T10:46:21;26.95;47.20
65374;SHT31;52070;53.760;9.678;2023-06-22T10:48:48;27.33;49.55
65374;SHT31;52070;53.760;9.678;2023-06-22T10:51:17;27.46;47.87
65374;SHT31;52070;53.760;9.678;2023-06-22T10:53:44;27.76;49.48
65374;SHT31;52070;53.760;9.678;2023-06-22T10:56:11;27.91;49.14
65374;SHT31;52070;53.760;9.678;2023-06-22T10:58:38;27.76;47.99
65374;SHT31;52070;53.760;9.678;2023-06-22T11:01:05;27.45;48.42
65374;SHT31;52070;53.760;9.678;2023-06-22T11:03:31;27.33;50.54
65374;SHT31;52070;53.760;9.678;2023-06-22T11:05:58;27.54;50.38
65374;SHT31;52070;53.760;9.678;2023-06-22T11:08:27;28.14;50.33
65374;SHT31;52070;53.760;9.678;2023-06-22T11:10:54;28.59;48.67
65374;SHT31;52070;53.760;9.678;2023-06-22T11:13:21;28.63;48.71
65374;SHT31;52070;53.760;9.678;2023-06-22T11:15:48;28.89;45.02
65374;SHT31;52070;53.760;9.678;2023-06-22T11:18:15;28.80;46.68
65374;SHT31;52070;53.760;9.678;2023-06-22T11:20:42;29.05;47.02
65374;SHT31;52070;53.760;9.678;2023-06-22T11:23:09;29.38;45.29
65374;SHT31;52070;53.760;9.678;2023-06-22T11:25:39;29.64;45.24
65374;SHT31;52070;53.760;9.678;2023-06-22T11:28:08;29.88;44.79
65374;SHT31;52070;53.760;9.678;2023-06-22T11:30:35;29.92;43.84
65374;SHT31;52070;53.760;9.678;2023-06-22T11:33:02;30.14;43.39
65374;SHT31;52070;53.760;9.678;2023-06-22T11:35:29;29.80;43.29
65374;SHT31;52070;53.760;9.678;2023-06-22T11:37:56;29.68;45.51
65374;SHT31;52070;53.760;9.678;2023-06-22T11:40:24;29.81;45.35
65374;SHT31;52070;53.760;9.678;2023-06-22T11:42:52;29.94;44.69
65374;SHT31;52070;53.760;9.678;2023-06-22T11:45:19;29.47;44.06
65374;SHT31;52070;53.760;9.678;2023-06-22T11:47:46;28.88;45.52
65374;SHT31;52070;53.760;9.678;2023-06-22T11:50:13;28.52;45.95
65374;SHT31;52070;53.760;9.678;2023-06-22T11:52:40;28.15;47.60
65374;SHT31;52070;53.760;9.678;2023-06-22T11:55:07;28.02;48.06
65374;SHT31;52070;53.760;9.678;2023-06-22T11:57:36;27.90;47.95
65374;SHT31;52070;53.760;9.678;2023-06-22T12:00:08;27.87;48.71
65374;SHT31;52070;53.760;9.678;2023-06-22T12:02:43;27.87;48.43
65374;SHT31;52070;53.760;9.678;2023-06-22T12:05:10;27.84;47.72
65374;SHT31;52070;53.760;9.678;2023-06-22T12:07:38;27.81;48.35
65374;SHT31;52070;53.760;9.678;2023-06-22T12:10:05;28.12;47.65
65374;SHT31;52070;53.760;9.678;2023-06-22T12:12:33;28.56;47.33
65374;SHT31;52070;53.760;9.678;2023-06-22T12:15:00;29.24;48.23
65374;SHT31;52070;53.760;9.678;2023-06-22T12:17:30;29.82;45.99
65374;SHT31;52070;53.760;9.678;2023-06-22T12:19:58;29.20;43.97
65374;SHT31;52070;53.760;9.678;2023-06-22T12:22:25;29.17;45.84
65374;SHT31;52070;53.760;9.678;2023-06-22T12:24:52;29.78;45.06
65374;SHT31;52070;53.760;9.678;2023-06-22T12:27:19;30.41;43.22
65374;SHT31;52070;53.760;9.678;2023-06-22T12:29:46;30.35;41.20
65374;SHT31;52070;53.760;9.678;2023-06-22T12:32:14;30.29;43.90
65374;SHT31;52070;53.760;9.678;2023-06-22T12:34:44;30.43;43.81
65374;SHT31;52070;53.760;9.678;2023-06-22T12:37:11;30.84;43.21
65374;SHT31;52070;53.760;9.678;2023-06-22T12:39:40;30.90;41.54
65374;SHT31;52070;53.760;9.678;2023-06-22T12:42:07;30.63;42.18
65374;SHT31;52070;53.760;9.678;2023-06-22T12:44:35;30.17;42.18
65374;SHT31;52070;53.760;9.678;2023-06-22T12:47:02;29.71;43.29
65374;SHT31;52070;53.760;9.678;2023-06-22T12:49:29;28.98;43.41
65374;SHT31;52070;53.760;9.678;2023-06-22T12:51:57;29.13;46.23
65374;SHT31;52070;53.760;9.678;2023-06-22T12:54:24;29.53;46.91
65374;SHT31;52070;53.760;9.678;2023-06-22T12:56:51;29.81;43.77
65374;SHT31;52070;53.760;9.678;2023-06-22T12:59:18;30.09;42.56
65374;SHT31;52070;53.760;9.678;2023-06-22T13:01:45;30.18;44.23
65374;SHT31;52070;53.760;9.678;2023-06-22T13:04:13;30.14;41.90
65374;SHT31;52070;53.760;9.678;2023-06-22T13:06:40;29.85;45.06
65374;SHT31;52070;53.760;9.678;2023-06-22T13:09:10;29.37;44.54
65374;SHT31;52070;53.760;9.678;2023-06-22T13:11:37;29.19;45.39
65374;SHT31;52070;53.760;9.678;2023-06-22T13:14:04;28.65;46.26
65374;SHT31;52070;53.760;9.678;2023-06-22T13:16:31;28.41;46.37
65374;SHT31;52070;53.760;9.678;2023-06-22T13:18:58;28.62;48.33
65374;SHT31;52070;53.760;9.678;2023-06-22T13:21:25;28.89;46.83
65374;SHT31;52070;53.760;9.678;2023-06-22T13:23:52;28.86;46.55
65374;SHT31;52070;53.760;9.678;2023-06-22T13:26:20;29.00;46.21
65374;SHT31;52070;53.760;9.678;2023-06-22T13:28:47;28.86;46.68
65374;SHT31;52070;53.760;9.678;2023-06-22T13:31:14;28.79;45.21
65374;SHT31;52070;53.760;9.678;2023-06-22T13:33:41;28.53;44.59
65374;SHT31;52070;53.760;9.678;2023-06-22T13:36:10;28.68;46.26
65374;SHT31;52070;53.760;9.678;2023-06-22T13:38:37;28.72;46.46
65374;SHT31;52070;53.760;9.678;2023-06-22T13:41:04;28.71;46.52
65374;SHT31;52070;53.760;9.678;2023-06-22T13:43:33;28.53;46.41
65374;SHT31;52070;53.760;9.678;2023-06-22T13:46:00;28.31;46.76
65374;SHT31;52070;53.760;9.678;2023-06-22T13:48:26;28.24;45.56
65374;SHT31;52070;53.760;9.678;2023-06-22T13:50:54;28.42;45.87
65374;SHT31;52070;53.760;9.678;2023-06-22T13:53:21;28.27;47.51
65374;SHT31;52070;53.760;9.678;2023-06-22T13:55:48;28.15;45.50
65374;SHT31;52070;53.760;9.678;2023-06-22T13:58:16;27.93;46.50
65374;SHT31;52070;53.760;9.678;2023-06-22T14:00:46;28.14;49.23
65374;SHT31;52070;53.760;9.678;2023-06-22T14:03:14;28.44;48.10
65374;SHT31;52070;53.760;9.678;2023-06-22T14:05:42;28.59;45.86
65374;SHT31;52070;53.760;9.678;2023-06-22T14:08:09;28.56;46.26
65374;SHT31;52070;53.760;9.678;2023-06-22T14:10:36;28.58;47.34
65374;SHT31;52070;53.760;9.678;2023-06-22T14:13:03;28.49;46.45
65374;SHT31;52070;53.760;9.678;2023-06-22T14:15:31;28.51;46.47
65374;SHT31;52070;53.760;9.678;2023-06-22T14:18:00;28.45;45.82
65374;SHT31;52070;53.760;9.678;2023-06-22T14:20:27;28.38;45.10
65374;SHT31;52070;53.760;9.678;2023-06-22T14:22:53;28.32;47.58
65374;SHT31;52070;53.760;9.678;2023-06-22T14:25:20;28.38;45.93
65374;SHT31;52070;53.760;9.678;2023-06-22T14:27:47;28.68;45.97
65374;SHT31;52070;53.760;9.678;2023-06-22T14:30:15;29.03;46.63
65374;SHT31;52070;53.760;9.678;2023-06-22T14:32:43;29.26;47.27
65374;SHT31;52070;53.760;9.678;2023-06-22T14:35:12;29.61;44.12
65374;SHT31;52070;53.760;9.678;2023-06-22T14:37:39;29.84;43.73
65374;SHT31;52070;53.760;9.678;2023-06-22T14:40:06;29.88;43.62
65374;SHT31;52070;53.760;9.678;2023-06-22T14:42:33;30.02;43.51
65374;SHT31;52070;53.760;9.678;2023-06-22T14:45:01;30.31;42.62
65374;SHT31;52070;53.760;9.678;2023-06-22T14:47:28;30.66;42.00
65374;SHT31;52070;53.760;9.678;2023-06-22T14:49:55;30.75;39.78
65374;SHT31;52070;53.760;9.678;2023-06-22T14:52:23;30.27;41.94
65374;SHT31;52070;53.760;9.678;2023-06-22T14:54:50;30.21;43.23
65374;SHT31;52070;53.760;9.678;2023-06-22T14:57:18;30.04;43.12
65374;SHT31;52070;53.760;9.678;2023-06-22T14:59:46;29.80;42.76
65374;SHT31;52070;53.760;9.678;2023-06-22T15:02:13;29.56;43.18
65374;SHT31;52070;53.760;9.678;2023-06-22T15:04:40;29.17;43.02
65374;SHT31;52070;53.760;9.678;2023-06-22T15:07:07;28.85;43.95
65374;SHT31;52070;53.760;9.678;2023-06-22T15:09:35;28.56;45.81
65374;SHT31;52070;53.760;9.678;2023-06-22T15:12:05;28.35;46.09
65374;SHT31;52070;53.760;9.678;2023-06-22T15:14:38;28.15;46.67
65374;SHT31;52070;53.760;9.678;2023-06-22T15:17:05;28.00;45.75
65374;SHT31;52070;53.760;9.678;2023-06-22T15:19:34;27.86;47.33
65374;SHT31;52070;53.760;9.678;2023-06-22T15:22:04;27.74;45.50
65374;SHT31;52070;53.760;9.678;2023-06-22T15:24:31;27.66;46.17
65374;SHT31;52070;53.760;9.678;2023-06-22T15:27:00;27.57;46.95
65374;SHT31;52070;53.760;9.678;2023-06-22T15:29:27;27.53;47.89
65374;SHT31;52070;53.760;9.678;2023-06-22T15:31:59;27.53;48.54
65374;SHT31;52070;53.760;9.678;2023-06-22T15:34:26;27.50;48.44
65374;SHT31;52070;53.760;9.678;2023-06-22T15:36:53;27.47;49.75